createdAt,value
2023-01-06T00:01:27.070Z,2.40
2023-01-06T00:03:58.353Z,3.93
2023-01-06T00:06:28.305Z,3.97
2023-01-06T00:08:58.632Z,3.47
2023-01-06T00:11:27.414Z,2.30
2023-01-06T00:13:56.479Z,4.13
2023-01-06T00:16:25.089Z,2.40
2023-01-06T00:18:56.131Z,2.20
2023-01-06T00:21:24.807Z,1.40
2023-01-06T00:23:53.194Z,2.10
2023-01-06T00:26:22.931Z,2.40
2023-01-06T00:28:54.124Z,2.03
2023-01-06T00:31:22.630Z,2.40
2023-01-06T00:33:51.144Z,3.30
2023-01-06T00:36:21.547Z,2.10
2023-01-06T00:38:50.295Z,2.80
2023-01-06T00:41:36.653Z,1.70
2023-01-06T00:44:06.609Z,2.87
2023-01-06T00:46:35.021Z,2.27
2023-01-06T00:49:05.271Z,4.00
2023-01-06T00:51:34.513Z,1.60
2023-01-06T00:54:02.919Z,3.13
2023-01-06T00:56:31.466Z,1.67
2023-01-06T00:58:59.888Z,3.17
2023-01-06T01:01:29.763Z,0.90
2023-01-06T01:05:15.165Z,2.07
2023-01-06T01:07:43.512Z,2.37
2023-01-06T01:10:12.218Z,1.47
2023-01-06T01:12:41.044Z,1.83
2023-01-06T01:15:10.075Z,2.13
2023-01-06T01:17:38.384Z,1.50
2023-01-06T01:20:07.149Z,2.43
2023-01-06T01:22:36.808Z,2.63
2023-01-06T01:25:05.175Z,1.10
2023-01-06T01:27:33.548Z,2.37
2023-01-06T01:30:01.852Z,1.60
2023-01-06T01:32:30.167Z,2.50
2023-01-06T01:34:58.506Z,2.33
2023-01-06T01:37:26.862Z,2.57
2023-01-06T01:39:56.623Z,2.17
2023-01-06T01:42:24.948Z,1.60
2023-01-06T01:45:03.945Z,2.50
2023-01-06T01:47:37.751Z,1.10
2023-01-06T01:50:08.253Z,1.93
2023-01-06T01:52:36.597Z,3.73
2023-01-06T01:55:07.877Z,2.07
2023-01-06T01:57:37.183Z,1.70
2023-01-06T02:00:06.288Z,2.23
2023-01-06T02:02:34.717Z,2.10
2023-01-06T02:05:03.499Z,3.00
2023-01-06T02:07:31.940Z,2.30
2023-01-06T02:10:04.116Z,3.60
2023-01-06T02:12:33.893Z,2.53
2023-01-06T02:15:02.296Z,1.80
2023-01-06T02:17:41.442Z,1.97
2023-01-06T02:20:23.610Z,2.07
2023-01-06T02:23:03.669Z,1.20
2023-01-06T02:25:44.517Z,2.10
2023-01-06T02:28:31.431Z,1.03
2023-01-06T02:31:14.332Z,2.47
2023-01-06T02:33:46.338Z,1.67
2023-01-06T02:36:20.108Z,2.40
2023-01-06T02:38:55.136Z,1.70
2023-01-06T02:41:28.965Z,1.60
2023-01-06T02:44:02.462Z,2.13
2023-01-06T02:46:40.753Z,1.60
2023-01-06T02:49:12.050Z,1.40
2023-01-06T02:51:44.628Z,1.20
2023-01-06T02:54:16.907Z,1.80
2023-01-06T02:56:47.974Z,1.20
2023-01-06T02:59:20.252Z,1.70
2023-01-06T03:01:52.913Z,2.30
2023-01-06T03:04:24.405Z,1.63
2023-01-06T03:06:54.195Z,1.33
2023-01-06T03:09:24.913Z,1.70
2023-01-06T03:11:53.450Z,1.90
2023-01-06T03:14:24.435Z,1.93
2023-01-06T03:16:54.505Z,1.70
2023-01-06T03:19:23.154Z,1.87
2023-01-06T03:21:52.716Z,1.20
2023-01-06T03:24:21.092Z,2.00
2023-01-06T03:26:52.376Z,2.17
2023-01-06T03:29:20.766Z,2.10
2023-01-06T03:31:51.892Z,1.93
2023-01-06T03:34:24.780Z,2.40
2023-01-06T03:36:59.022Z,1.30
2023-01-06T03:39:32.076Z,1.20
2023-01-06T03:42:35.572Z,2.07
2023-01-06T03:45:08.020Z,1.27
2023-01-06T03:47:40.131Z,1.20
2023-01-06T03:50:12.100Z,1.33
2023-01-06T03:52:44.960Z,2.53
2023-01-06T03:55:16.663Z,1.67
2023-01-06T03:57:46.176Z,2.60
2023-01-06T04:00:17.561Z,1.90
2023-01-06T04:02:47.426Z,2.23
2023-01-06T04:05:18.923Z,1.43
2023-01-06T04:07:47.666Z,1.87
2023-01-06T04:10:16.975Z,2.33
2023-01-06T04:12:44.321Z,2.80
2023-01-06T04:15:13.728Z,1.63
2023-01-06T04:17:42.719Z,2.70
2023-01-06T04:20:12.502Z,2.03
2023-01-06T04:22:42.376Z,2.03
2023-01-06T04:25:10.969Z,1.27
2023-01-06T04:27:39.393Z,2.03
2023-01-06T04:30:08.204Z,3.00
2023-01-06T04:32:36.594Z,2.10
2023-01-06T04:35:05.080Z,2.20
2023-01-06T04:37:33.475Z,2.10
2023-01-06T04:40:03.738Z,3.07
2023-01-06T04:42:52.564Z,2.10
2023-01-06T04:45:20.940Z,1.90
2023-01-06T04:47:49.340Z,2.30
2023-01-06T04:50:17.871Z,3.07
2023-01-06T04:52:46.239Z,2.20
2023-01-06T04:55:16.008Z,1.53
2023-01-06T04:57:44.412Z,2.63
2023-01-06T05:00:13.356Z,2.90
2023-01-06T05:02:41.694Z,1.50
2023-01-06T05:05:10.528Z,2.20
2023-01-06T05:07:38.830Z,1.70
2023-01-06T05:10:08.542Z,2.80
2023-01-06T05:12:38.466Z,1.70
2023-01-06T05:15:07.669Z,3.00
2023-01-06T05:17:35.988Z,2.37
2023-01-06T05:20:04.439Z,2.60
2023-01-06T05:22:32.816Z,2.37
2023-01-06T05:25:01.182Z,2.07
2023-01-06T05:27:29.585Z,2.83
2023-01-06T05:29:59.320Z,3.17
2023-01-06T05:32:27.691Z,2.50
2023-01-06T05:34:56.105Z,3.20
2023-01-06T05:37:24.461Z,3.73
2023-01-06T05:39:52.878Z,2.90
2023-01-06T05:42:21.309Z,2.10
2023-01-06T05:44:49.631Z,2.10
2023-01-06T05:47:19.383Z,2.20
2023-01-06T05:49:47.758Z,3.60
2023-01-06T05:52:16.151Z,3.60
2023-01-06T05:54:44.525Z,3.10
2023-01-06T05:57:13.036Z,2.70
2023-01-06T05:59:41.435Z,2.47
2023-01-06T06:02:09.837Z,2.80
2023-01-06T06:04:39.673Z,2.67
2023-01-06T06:07:08.062Z,2.53
2023-01-06T06:09:36.439Z,2.40
2023-01-06T06:12:04.860Z,2.00
2023-01-06T06:14:33.337Z,3.10
2023-01-06T06:17:01.675Z,1.80
2023-01-06T06:19:30.031Z,2.57
2023-01-06T06:22:00.410Z,2.30
2023-01-06T06:24:28.754Z,1.97
2023-01-06T06:26:57.079Z,1.53
2023-01-06T06:29:25.426Z,1.37
2023-01-06T06:31:53.785Z,2.93
2023-01-06T06:34:22.226Z,4.53
2023-01-06T06:36:50.556Z,3.50
2023-01-06T06:39:20.407Z,4.27
2023-01-06T06:41:48.868Z,5.77
2023-01-06T06:44:17.280Z,2.80
2023-01-06T06:46:45.692Z,4.60
2023-01-06T06:49:14.107Z,2.27
2023-01-06T06:51:42.511Z,2.97
2023-01-06T06:54:10.945Z,4.53
2023-01-06T06:56:40.711Z,3.70
2023-01-06T06:59:09.093Z,3.83
2023-01-06T07:01:37.673Z,2.40
2023-01-06T07:04:06.420Z,3.30
2023-01-06T07:06:34.950Z,2.47
2023-01-06T07:09:03.543Z,1.00
2023-01-06T07:11:31.948Z,1.67
2023-01-06T07:14:01.797Z,1.90
2023-01-06T07:16:30.867Z,1.60
2023-01-06T07:18:59.421Z,0.83
2023-01-06T07:21:27.937Z,1.23
2023-01-06T07:23:56.353Z,2.23
2023-01-06T07:26:24.884Z,1.63
2023-01-06T07:28:53.500Z,1.70
2023-01-06T07:31:23.487Z,0.93
2023-01-06T07:33:52.145Z,0.90
2023-01-06T07:36:23.133Z,1.63
2023-01-06T07:38:51.660Z,1.30
2023-01-06T07:41:20.069Z,2.00
2023-01-06T07:43:48.685Z,2.50
2023-01-06T07:46:17.353Z,1.67
2023-01-06T07:48:47.400Z,1.90
2023-01-06T07:51:16.005Z,3.80
2023-01-06T07:53:44.720Z,1.40
2023-01-06T07:56:13.312Z,1.37
2023-01-06T07:58:41.894Z,2.50
2023-01-06T08:01:15.765Z,1.67
2023-01-06T08:03:44.422Z,2.93
2023-01-06T08:06:14.474Z,1.80
2023-01-06T08:08:43.715Z,1.53
2023-01-06T08:11:13.722Z,1.50
2023-01-06T08:13:42.219Z,1.33
2023-01-06T08:16:11.473Z,2.00
2023-01-06T08:18:40.305Z,1.70
2023-01-06T08:21:11.139Z,1.40
2023-01-06T08:23:41.085Z,1.43
2023-01-06T08:26:13.698Z,2.50
2023-01-06T08:28:42.607Z,1.40
2023-01-06T08:31:13.715Z,1.27
2023-01-06T08:33:42.361Z,1.43
2023-01-06T08:36:11.910Z,2.33
2023-01-06T08:38:41.808Z,1.40
2023-01-06T08:41:12.221Z,1.47
2023-01-06T08:43:41.940Z,1.60
2023-01-06T08:46:13.071Z,1.10
2023-01-06T08:48:41.785Z,2.60
2023-01-06T08:51:15.094Z,2.60
2023-01-06T08:53:45.119Z,1.67
2023-01-06T08:56:14.737Z,1.50
2023-01-06T08:58:43.299Z,1.53
2023-01-06T09:01:17.358Z,1.17
2023-01-06T09:03:46.310Z,1.37
2023-01-06T09:06:15.387Z,1.37
2023-01-06T09:08:45.326Z,1.13
2023-01-06T09:11:14.104Z,2.33
2023-01-06T09:13:42.839Z,1.70
2023-01-06T09:16:15.037Z,1.77
2023-01-06T09:18:48.460Z,1.57
2023-01-06T09:21:17.779Z,2.07
2023-01-06T09:23:50.496Z,1.93
2023-01-06T09:26:20.278Z,3.07
2023-01-06T09:28:51.177Z,3.33
2023-01-06T09:31:19.996Z,1.80
2023-01-06T09:33:48.700Z,2.17
2023-01-06T09:36:17.371Z,1.23
2023-01-06T09:38:45.992Z,1.87
2023-01-06T09:41:28.730Z,2.13
2023-01-06T09:44:00.467Z,1.97
2023-01-06T09:46:30.706Z,1.77
2023-01-06T09:49:01.287Z,3.10
2023-01-06T09:51:30.906Z,1.33
2023-01-06T09:54:01.839Z,2.47
2023-01-06T09:56:32.523Z,1.87
2023-01-06T09:59:06.742Z,1.10
2023-01-06T10:01:38.684Z,2.80
2023-01-06T10:04:07.528Z,3.30
2023-01-06T10:06:38.863Z,1.80
2023-01-06T10:09:12.662Z,1.17
2023-01-06T10:11:46.944Z,0.93
2023-01-06T10:14:18.999Z,1.27
2023-01-06T10:16:56.378Z,1.60
2023-01-06T10:19:30.351Z,1.63
2023-01-06T10:22:03.621Z,1.00
2023-01-06T10:24:39.345Z,1.20
2023-01-06T10:27:15.393Z,2.13
2023-01-06T10:29:45.191Z,2.90
2023-01-06T10:32:17.260Z,2.57
2023-01-06T10:34:46.695Z,1.67
2023-01-06T10:37:23.973Z,2.80
2023-01-06T10:39:56.832Z,1.33
2023-01-06T10:42:47.030Z,1.70
2023-01-06T10:45:15.807Z,1.43
2023-01-06T10:47:45.503Z,3.13
2023-01-06T10:50:15.320Z,1.47
2023-01-06T10:52:44.270Z,1.53
2023-01-06T10:55:21.139Z,0.80
2023-01-06T10:57:51.495Z,1.27
2023-01-06T11:00:22.420Z,2.63
2023-01-06T11:02:51.849Z,2.10
2023-01-06T11:05:21.592Z,2.07
2023-01-06T11:07:51.734Z,1.77
2023-01-06T11:10:27.706Z,2.97
2023-01-06T11:12:58.600Z,1.27
2023-01-06T11:15:31.284Z,1.50
2023-01-06T11:17:59.765Z,1.10
2023-01-06T11:20:32.307Z,1.63
2023-01-06T11:23:21.904Z,2.17
2023-01-06T11:26:04.262Z,1.63
2023-01-06T11:28:34.738Z,1.60
2023-01-06T11:31:04.713Z,2.90
2023-01-06T11:33:34.003Z,1.87
2023-01-06T11:36:09.464Z,0.80
2023-01-06T11:38:48.694Z,1.50
2023-01-06T11:41:22.953Z,1.73
2023-01-06T11:43:53.444Z,1.00
2023-01-06T11:46:25.478Z,2.40
2023-01-06T11:48:59.181Z,1.80
2023-01-06T11:51:46.478Z,2.40
2023-01-06T11:54:26.315Z,1.23
2023-01-06T11:57:02.198Z,2.13
2023-01-06T11:59:39.452Z,2.30
2023-01-06T12:02:11.136Z,1.17
2023-01-06T12:04:43.476Z,1.97
2023-01-06T12:07:15.556Z,2.30
2023-01-06T12:09:45.988Z,2.03
2023-01-06T12:12:17.987Z,1.63
2023-01-06T12:14:47.938Z,1.60
2023-01-06T12:17:18.518Z,1.73
2023-01-06T12:19:50.379Z,1.30
2023-01-06T12:22:24.367Z,1.50
2023-01-06T12:24:53.915Z,1.47
2023-01-06T12:27:28.491Z,2.07
2023-01-06T12:30:00.638Z,1.90
2023-01-06T12:32:31.930Z,2.80
2023-01-06T12:35:02.011Z,1.97
2023-01-06T12:37:34.191Z,1.73
2023-01-06T12:40:05.840Z,2.70
2023-01-06T12:42:37.599Z,1.77
2023-01-06T12:45:12.796Z,1.67
2023-01-06T12:47:45.453Z,1.53
2023-01-06T12:50:19.207Z,1.73
2023-01-06T12:52:49.762Z,2.33
2023-01-06T12:55:20.844Z,1.30
2023-01-06T12:57:53.139Z,2.17
2023-01-06T13:00:28.613Z,1.57
2023-01-06T13:03:04.824Z,2.13
2023-01-06T13:05:43.189Z,2.17
2023-01-06T13:08:20.196Z,1.87
2023-01-06T13:10:50.596Z,1.13
2023-01-06T13:13:28.439Z,2.00
2023-01-06T13:15:59.129Z,3.33
2023-01-06T13:18:31.095Z,1.43
2023-01-06T13:21:02.869Z,0.90
2023-01-06T13:23:45.707Z,1.67
2023-01-06T13:26:21.662Z,2.93
2023-01-06T13:28:55.922Z,1.97
2023-01-06T13:31:42.437Z,2.77
2023-01-06T13:34:32.623Z,1.40
2023-01-06T13:37:20.053Z,1.93
2023-01-06T13:39:50.903Z,2.47
2023-01-06T13:42:22.223Z,1.73
2023-01-06T13:44:51.061Z,1.27
2023-01-06T13:47:21.156Z,1.07
2023-01-06T13:49:52.009Z,2.93
2023-01-06T13:52:21.833Z,1.30
2023-01-06T13:55:03.892Z,1.50
2023-01-06T13:57:35.754Z,1.07
2023-01-06T14:00:16.451Z,1.80
2023-01-06T14:03:15.511Z,2.00
2023-01-06T14:05:53.820Z,1.47
2023-01-06T14:08:22.861Z,1.53
2023-01-06T14:10:58.455Z,0.90
2023-01-06T14:13:28.650Z,1.73
2023-01-06T14:15:58.469Z,1.27
2023-01-06T14:18:32.103Z,2.07
2023-01-06T14:21:04.488Z,1.50
2023-01-06T14:23:34.319Z,1.60
2023-01-06T14:26:03.235Z,1.40
2023-01-06T14:28:32.681Z,1.30
2023-01-06T14:31:19.664Z,1.50
2023-01-06T14:33:53.794Z,2.90
2023-01-06T14:36:24.213Z,1.93
2023-01-06T14:38:54.626Z,1.40
2023-01-06T14:41:24.978Z,2.40
2023-01-06T14:43:55.214Z,1.10
2023-01-06T14:46:26.186Z,1.63
2023-01-06T14:48:57.230Z,1.70
2023-01-06T14:51:27.342Z,1.73
2023-01-06T14:53:59.309Z,3.30
2023-01-06T14:56:29.562Z,0.87
2023-01-06T14:59:07.893Z,1.40
2023-01-06T15:01:37.332Z,1.10
2023-01-06T15:04:06.231Z,1.13
2023-01-06T15:06:36.037Z,1.90
2023-01-06T15:09:14.732Z,2.13
2023-01-06T15:11:43.900Z,2.80
2023-01-06T15:14:30.208Z,2.10
2023-01-06T15:17:02.778Z,1.50
2023-01-06T15:19:31.993Z,0.83
2023-01-06T15:22:02.564Z,2.30
2023-01-06T15:24:32.768Z,1.43
2023-01-06T15:27:05.614Z,1.77
2023-01-06T15:29:34.609Z,1.33
2023-01-06T15:32:03.426Z,0.93
2023-01-06T15:34:34.867Z,0.93
2023-01-06T15:37:06.354Z,0.97
2023-01-06T15:39:36.001Z,1.57
2023-01-06T15:42:08.071Z,2.23
2023-01-06T15:44:39.095Z,1.77
2023-01-06T15:47:20.257Z,2.33
2023-01-06T15:49:52.689Z,1.30
2023-01-06T15:52:25.599Z,1.13
2023-01-06T15:54:55.697Z,2.93
2023-01-06T15:57:24.492Z,1.90
2023-01-06T15:59:55.616Z,1.40
2023-01-06T16:02:26.645Z,1.37
2023-01-06T16:04:55.220Z,1.37
2023-01-06T16:07:35.329Z,2.43
2023-01-06T16:10:03.809Z,2.10
2023-01-06T16:12:32.321Z,1.50
2023-01-06T16:15:00.704Z,1.20
2023-01-06T16:17:31.264Z,2.27
2023-01-06T16:20:03.294Z,1.10
2023-01-06T16:22:35.470Z,1.70
2023-01-06T16:25:04.865Z,1.27
2023-01-06T16:27:33.283Z,2.37
2023-01-06T16:30:20.604Z,1.73
2023-01-06T16:32:49.303Z,2.80
2023-01-06T16:35:18.818Z,1.87
2023-01-06T16:37:48.576Z,1.53
2023-01-06T16:40:18.170Z,1.40
2023-01-06T16:42:47.045Z,1.43
2023-01-06T16:45:24.483Z,1.70
2023-01-06T16:47:52.874Z,2.60
2023-01-06T16:50:22.687Z,1.33
2023-01-06T16:52:56.754Z,2.50
2023-01-06T16:55:25.279Z,1.47
2023-01-06T16:57:53.905Z,1.90
2023-01-06T17:00:23.103Z,2.10
2023-01-06T17:02:52.363Z,1.37
2023-01-06T17:05:25.686Z,2.43
2023-01-06T17:07:58.285Z,3.63
2023-01-06T17:10:26.679Z,4.67
2023-01-06T17:13:14.478Z,2.70
2023-01-06T17:15:43.041Z,2.00
2023-01-06T17:18:25.701Z,3.73
2023-01-06T17:20:56.266Z,2.87
2023-01-06T17:23:26.324Z,1.80
2023-01-06T17:25:56.132Z,2.17
2023-01-06T17:28:24.439Z,2.83
2023-01-06T17:30:52.957Z,1.80
2023-01-06T17:33:21.373Z,1.10
2023-01-06T17:35:57.711Z,1.57
2023-01-06T17:38:27.728Z,1.70
2023-01-06T17:40:56.842Z,2.97
2023-01-06T17:43:33.478Z,1.70
2023-01-06T17:46:03.325Z,1.43
2023-01-06T17:48:32.193Z,2.37
2023-01-06T17:51:00.526Z,2.90
2023-01-06T17:53:51.889Z,2.17
2023-01-06T17:56:20.410Z,3.63
2023-01-06T17:58:48.770Z,2.10
2023-01-06T18:01:21.563Z,2.67
2023-01-06T18:03:50.114Z,2.70
2023-01-06T18:06:25.951Z,2.17
2023-01-06T18:09:18.901Z,2.43
2023-01-06T18:11:50.234Z,1.37
2023-01-06T18:14:26.641Z,1.63
2023-01-06T18:16:56.671Z,2.10
2023-01-06T18:19:26.509Z,1.53
2023-01-06T18:21:55.256Z,2.77
2023-01-06T18:24:25.751Z,3.00
2023-01-06T18:26:56.974Z,2.30
2023-01-06T18:29:26.426Z,2.43
2023-01-06T18:31:55.687Z,3.07
2023-01-06T18:34:28.884Z,2.70
2023-01-06T18:36:57.944Z,2.80
2023-01-06T18:39:28.375Z,2.33
2023-01-06T18:42:17.307Z,3.23
2023-01-06T18:44:45.720Z,3.77
2023-01-06T18:47:16.017Z,4.40
2023-01-06T18:49:44.633Z,2.53
2023-01-06T18:52:27.100Z,3.50
2023-01-06T18:54:56.413Z,4.07
2023-01-06T18:57:29.523Z,4.40
2023-01-06T18:59:59.999Z,5.30
2023-01-06T19:02:32.857Z,4.87
2023-01-06T19:05:02.068Z,5.43
2023-01-06T19:07:31.172Z,4.43
2023-01-06T19:09:59.658Z,5.43
2023-01-06T19:12:31.441Z,6.00
2023-01-06T19:15:01.565Z,4.97
2023-01-06T19:17:31.621Z,4.63
2023-01-06T19:20:01.958Z,5.87
2023-01-06T19:22:31.096Z,3.77
2023-01-06T19:25:01.268Z,5.23
2023-01-06T19:27:35.631Z,5.70
2023-01-06T19:30:28.047Z,6.27
2023-01-06T19:32:56.417Z,6.90
2023-01-06T19:35:25.365Z,6.93
2023-01-06T19:37:54.951Z,7.17
2023-01-06T19:40:25.092Z,5.90
2023-01-06T19:42:54.915Z,5.10
2023-01-06T19:45:29.747Z,6.70
2023-01-06T19:47:59.533Z,9.77
2023-01-06T19:50:27.928Z,13.90
2023-01-06T19:53:00.693Z,12.23
2023-01-06T19:55:30.671Z,11.73
2023-01-06T19:58:03.988Z,15.87
2023-01-06T20:00:33.176Z,13.07
2023-01-06T20:03:03.492Z,11.73
2023-01-06T20:05:32.781Z,18.10
2023-01-06T20:08:01.228Z,14.90
2023-01-06T20:10:29.646Z,10.40
2023-01-06T20:12:58.028Z,16.10
2023-01-06T20:15:27.780Z,17.97
2023-01-06T20:17:56.128Z,9.43
2023-01-06T20:20:24.489Z,10.10
2023-01-06T20:22:52.867Z,14.00
2023-01-06T20:25:21.289Z,16.33
2023-01-06T20:27:49.641Z,16.67
2023-01-06T20:30:18.032Z,12.00
2023-01-06T20:32:47.804Z,13.87
2023-01-06T20:35:16.865Z,11.07
2023-01-06T20:37:45.270Z,9.13
2023-01-06T20:40:13.905Z,9.20
2023-01-06T20:42:42.252Z,9.43
2023-01-06T20:45:11.068Z,5.60
2023-01-06T20:47:39.447Z,9.57
2023-01-06T20:50:13.524Z,5.80
2023-01-06T20:52:42.103Z,4.33
2023-01-06T20:55:10.662Z,2.73
2023-01-06T20:57:39.059Z,5.10
2023-01-06T21:00:09.604Z,4.47
2023-01-06T21:02:38.122Z,4.63
2023-01-06T21:05:07.122Z,4.67
2023-01-06T21:07:37.056Z,4.43
2023-01-06T21:10:05.864Z,6.77
2023-01-06T21:12:34.476Z,6.17
2023-01-06T21:15:02.878Z,3.30
2023-01-06T21:17:31.297Z,5.17
2023-01-06T21:20:00.647Z,6.47
2023-01-06T21:22:29.092Z,9.10
2023-01-06T21:24:58.741Z,7.13
2023-01-06T21:27:27.105Z,2.57
2023-01-06T21:29:55.474Z,3.67
2023-01-06T21:32:23.872Z,4.00
2023-01-06T21:34:52.325Z,7.93
2023-01-06T21:37:20.957Z,5.67
2023-01-06T21:39:49.243Z,7.37
2023-01-06T21:42:51.249Z,5.03
2023-01-06T21:45:19.640Z,10.93
2023-01-06T21:47:48.054Z,6.43
2023-01-06T21:50:16.455Z,7.47
2023-01-06T21:52:46.496Z,3.97
2023-01-06T21:55:14.931Z,5.77
2023-01-06T21:57:45.323Z,4.50
2023-01-06T22:00:14.132Z,5.33
2023-01-06T22:02:42.563Z,4.10
2023-01-06T22:05:11.233Z,4.90
2023-01-06T22:07:41.544Z,4.60
2023-01-06T22:10:10.549Z,4.53
2023-01-06T22:12:39.390Z,5.63
2023-01-06T22:15:10.225Z,6.87
2023-01-06T22:17:38.974Z,3.50
2023-01-06T22:20:07.963Z,5.07
2023-01-06T22:22:36.909Z,7.50
2023-01-06T22:25:06.032Z,7.07
2023-01-06T22:27:34.387Z,6.37
2023-01-06T22:30:02.767Z,7.43
2023-01-06T22:32:32.723Z,5.17
2023-01-06T22:35:01.077Z,3.70
2023-01-06T22:37:29.485Z,4.47
2023-01-06T22:39:57.817Z,3.97
2023-01-06T22:42:26.169Z,4.60
2023-01-06T22:44:54.571Z,2.87
2023-01-06T22:47:22.901Z,6.20
2023-01-06T22:49:52.660Z,6.33
2023-01-06T22:52:20.987Z,4.47
2023-01-06T22:54:49.326Z,4.53
2023-01-06T22:57:17.676Z,5.47
2023-01-06T22:59:46.084Z,5.00
2023-01-06T23:02:14.628Z,3.33
2023-01-06T23:04:43.110Z,4.60
2023-01-06T23:07:14.017Z,4.77
2023-01-06T23:09:42.418Z,6.70
2023-01-06T23:12:10.763Z,4.10
2023-01-06T23:14:39.311Z,4.23
2023-01-06T23:17:07.804Z,3.63
2023-01-06T23:19:36.203Z,3.70
2023-01-06T23:22:04.572Z,4.27
2023-01-06T23:24:34.437Z,5.50
2023-01-06T23:27:02.795Z,4.87
2023-01-06T23:29:31.640Z,6.57
2023-01-06T23:31:59.980Z,5.33
2023-01-06T23:34:29.063Z,4.20
2023-01-06T23:36:57.397Z,5.43
2023-01-06T23:39:25.786Z,4.33
2023-01-06T23:41:55.667Z,5.63
2023-01-06T23:44:24.086Z,4.10
2023-01-06T23:46:52.493Z,3.63
2023-01-06T23:49:20.975Z,2.33
2023-01-06T23:51:49.327Z,3.47
2023-01-06T23:54:17.665Z,3.20
2023-01-06T23:56:47.123Z,4.60
2023-01-06T23:59:16.841Z,3.60
